Time;durP1;ratioP1;P1;durP2;ratioP2;P2;SDS_P1;SDS_P2;PMS_P1;PMS_P2;Temp;Humidity;BMP_temperature;BMP_pressure;BME280_temperature;BME280_humidity;BME280_pressure;Samples;Min_cycle;Max_cycle;Signal;HPM_P1;HPM_P2
2023/10/30 00:00:51;;;;;;;5.50;1.53;;;12.40;99.90;;;11.81;80.00;99349.34;5034999;28;20683;-72
2023/10/30 00:03:19;;;;;;;5.33;1.50;;;12.40;99.90;;;11.81;80.71;99354.72;5035063;28;20211;-72
2023/10/30 00:05:49;;;;;;;4.13;1.50;;;12.40;99.90;;;11.79;81.29;99354.06;5034960;28;20230;-72
2023/10/30 00:08:18;;;;;;;4.43;1.40;;;12.40;99.90;;;11.76;80.67;99352.63;5035538;28;20298;-73
2023/10/30 00:10:46;;;;;;;5.93;1.23;;;12.40;99.90;;;11.77;80.80;99348.09;5034649;28;20669;-73
2023/10/30 00:13:15;;;;;;;6.60;1.20;;;12.40;99.90;;;11.76;80.63;99359.84;5034164;28;20686;-73
2023/10/30 00:15:43;;;;;;;5.03;1.40;;;12.40;99.90;;;11.75;80.71;99367.06;5034804;28;20223;-73
2023/10/30 00:18:11;;;;;;;2.60;1.37;;;12.40;99.90;;;11.73;80.75;99373.66;5034807;28;20285;-73
2023/10/30 00:20:40;;;;;;;4.77;1.30;;;12.30;99.90;;;11.73;81.31;99379.00;5034743;28;20219;-73
2023/10/30 00:23:09;;;;;;;6.50;1.43;;;12.40;99.90;;;11.74;81.51;99365.41;5034801;28;20226;-74
2023/10/30 00:25:38;;;;;;;3.83;1.43;;;12.40;99.90;;;11.76;81.01;99381.28;5034309;28;20732;-73
2023/10/30 00:28:06;;;;;;;4.40;1.70;;;12.40;99.90;;;11.75;81.27;99387.69;5034311;28;20728;-73
2023/10/30 00:30:34;;;;;;;6.10;1.60;;;12.40;99.90;;;11.77;80.90;99385.63;5034593;28;20202;-73
2023/10/30 00:33:02;;;;;;;7.03;1.70;;;12.40;99.90;;;11.75;80.35;99376.97;5034567;28;20210;-73
2023/10/30 00:35:30;;;;;;;5.50;1.40;;;12.40;99.90;;;11.73;80.42;99379.00;5034483;28;20222;-73
2023/10/30 00:37:59;;;;;;;4.37;1.50;;;12.40;99.90;;;11.71;80.86;99391.81;5034458;28;20637;-73
2023/10/30 00:40:29;;;;;;;4.53;1.53;;;12.40;99.90;;;11.74;81.16;99396.75;5034385;28;20746;-73
2023/10/30 00:42:57;;;;;;;5.00;1.50;;;12.40;99.90;;;11.72;81.40;99396.13;5034391;28;20215;-73
2023/10/30 00:45:25;;;;;;;5.23;1.50;;;12.40;99.90;;;11.74;80.48;99394.09;5034277;28;20317;-73
2023/10/30 00:47:54;;;;;;;3.87;1.40;;;12.40;99.90;;;11.70;81.36;99393.63;5034003;28;20210;-73
2023/10/30 00:50:22;;;;;;;5.03;1.40;;;12.30;99.90;;;11.69;80.85;99395.47;5034252;28;20211;-73
2023/10/30 00:52:50;;;;;;;9.23;1.70;;;12.30;99.90;;;11.67;80.96;99389.50;5033997;28;20297;-73
2023/10/30 00:55:18;;;;;;;4.23;1.57;;;12.30;99.90;;;11.68;81.57;99387.63;5034141;28;20222;-73
2023/10/30 00:57:48;;;;;;;5.60;1.83;;;12.30;99.90;;;11.72;80.47;99388.06;5034578;28;20681;-74
2023/10/30 01:00:17;;;;;;;4.43;1.40;;;12.30;99.90;;;11.73;81.05;99393.25;5034036;28;20213;-73
2023/10/30 01:02:45;;;;;;;6.20;1.80;;;12.40;99.90;;;11.76;79.89;99406.25;5033896;28;20234;-73
2023/10/30 01:05:14;;;;;;;6.20;1.70;;;12.40;99.90;;;11.76;80.92;99400.88;5033553;28;20261;-73
2023/10/30 01:07:42;;;;;;;5.00;1.50;;;12.40;99.90;;;11.75;81.01;99411.84;5033923;28;20203;-73
2023/10/30 01:10:11;;;;;;;6.17;1.43;;;12.40;99.90;;;11.74;80.95;99415.53;5033888;28;20250;-73
2023/10/30 01:12:39;;;;;;;4.40;1.67;;;12.40;99.90;;;11.72;81.32;99414.88;5033581;28;20289;-73
2023/10/30 01:15:10;;;;;;;9.83;1.83;;;12.40;99.90;;;11.71;81.26;99413.25;5033717;28;20301;-73
2023/10/30 01:17:39;;;;;;;5.07;1.70;;;12.30;99.90;;;11.71;81.54;99419.44;5033744;28;20210;-73
2023/10/30 01:20:09;;;;;;;4.00;1.23;;;12.30;99.90;;;11.74;80.46;99418.22;5033734;28;20211;-73
2023/10/30 01:22:37;;;;;;;4.37;1.60;;;12.40;99.90;;;11.74;80.23;99427.09;5033654;28;20265;-73
2023/10/30 01:25:05;;;;;;;5.57;1.70;;;12.40;99.90;;;11.73;81.21;99421.91;5032851;28;20264;-73
2023/10/30 01:27:34;;;;;;;6.17;1.80;;;12.40;99.90;;;11.73;80.44;99424.59;5033585;28;20246;-73
2023/10/30 01:30:02;;;;;;;5.13;1.67;;;12.30;99.90;;;11.71;80.81;99418.63;5033560;28;20214;-73
2023/10/30 01:32:31;;;;;;;6.83;1.80;;;12.30;99.90;;;11.68;80.84;99420.63;5033555;28;20230;-73
2023/10/30 01:34:59;;;;;;;6.23;1.60;;;12.40;99.90;;;11.66;80.75;99428.03;5033473;28;20234;-73
2023/10/30 01:37:28;;;;;;;5.27;1.50;;;12.30;99.90;;;11.66;81.54;99428.03;5033502;28;20289;-73
2023/10/30 01:39:56;;;;;;;7.03;1.70;;;12.30;99.90;;;11.67;81.35;99424.34;5033700;28;20297;-73
2023/10/30 01:42:24;;;;;;;6.03;1.73;;;12.30;99.90;;;11.67;80.80;99424.34;5033379;28;20572;-73
2023/10/30 01:44:57;;;;;;;4.87;1.70;;;12.30;99.90;;;11.65;81.47;99431.75;5033361;28;20210;-73
2023/10/30 01:47:26;;;;;;;5.43;1.87;;;12.30;99.90;;;11.62;81.90;99426.78;5033143;28;20191;-73
2023/10/30 01:49:57;;;;;;;6.67;1.97;;;12.30;99.90;;;11.61;81.31;99425.13;5033365;28;20203;-73
2023/10/30 01:52:29;;;;;;;4.17;1.67;;;12.30;99.90;;;11.60;82.28;99422.66;5033437;28;20257;-73
2023/10/30 01:54:58;;;;;;;5.20;1.90;;;12.30;99.90;;;11.59;82.48;99421.81;5033307;28;20274;-73
2023/10/30 01:57:29;;;;;;;4.07;1.40;;;12.20;99.90;;;11.61;81.25;99430.47;5033568;28;20302;-73
2023/10/30 01:59:58;;;;;;;5.93;1.80;;;12.30;99.90;;;11.61;82.18;99437.69;5033305;28;20195;-72
2023/10/30 02:02:30;;;;;;;4.90;1.87;;;12.30;99.90;;;11.59;82.13;99437.06;5033478;28;20226;-72
2023/10/30 02:05:00;;;;;;;7.37;1.87;;;12.30;99.90;;;11.57;82.04;99431.94;5033298;28;20278;-72
2023/10/30 02:07:28;;;;;;;4.47;1.50;;;12.20;99.90;;;11.58;81.91;99430.06;5033275;28;20378;-72
2023/10/30 02:09:56;;;;;;;3.90;1.63;;;12.20;99.90;;;11.54;82.59;99426.94;5033801;28;20202;-72
2023/10/30 02:12:24;;;;;;;4.37;1.47;;;12.20;99.90;;;11.51;82.45;99423.81;5033021;28;20297;-72
2023/10/30 02:14:52;;;;;;;5.90;2.00;;;12.10;99.90;;;11.50;81.97;99420.34;5033108;28;20211;-72
2023/10/30 02:17:21;;;;;;;4.97;1.30;;;12.20;99.90;;;11.49;82.19;99421.38;5033171;28;20210;-72
2023/10/30 02:19:49;;;;;;;7.17;2.60;;;12.10;99.90;;;11.46;83.25;99420.94;5033140;28;20230;-72
2023/10/30 02:22:18;;;;;;;8.27;2.93;;;12.10;99.90;;;11.46;82.32;99421.75;5033198;28;20207;-72
2023/10/30 02:24:47;;;;;;;4.93;2.47;;;12.10;99.90;;;11.43;82.43;99411.44;5033122;28;20207;-72
2023/10/30 02:27:17;;;;;;;7.50;2.00;;;12.10;99.90;;;11.43;83.13;99418.66;5032727;28;20302;-72
2023/10/30 02:29:45;;;;;;;6.10;2.03;;;12.10;99.90;;;11.43;83.67;99426.69;5033080;28;20254;-72
2023/10/30 02:32:14;;;;;;;5.07;1.67;;;12.10;99.90;;;11.42;83.19;99416.97;5032968;28;20213;-72
2023/10/30 02:34:42;;;;;;;5.33;1.77;;;12.00;99.90;;;11.41;83.37;99413.47;5033015;28;20333;-72
2023/10/30 02:37:10;;;;;;;6.17;1.90;;;12.10;99.90;;;11.41;82.92;99426.88;5035487;28;20265;-72
2023/10/30 02:39:38;;;;;;;5.33;1.57;;;12.10;99.90;;;11.40;83.27;99417.19;5036893;28;20242;-72
2023/10/30 02:42:08;;;;;;;7.60;2.27;;;12.10;99.90;;;11.39;83.35;99410.19;5036596;28;20214;-72
2023/10/30 02:44:37;;;;;;;7.10;2.20;;;12.00;99.90;;;11.38;84.07;99413.88;5036502;28;20236;-72
2023/10/30 02:47:06;;;;;;;5.90;2.13;;;12.00;99.90;;;11.36;83.56;99410.56;5036140;28;20668;-72
2023/10/30 02:49:35;;;;;;;6.17;1.97;;;12.00;99.90;;;11.35;84.22;99411.59;5036400;28;20569;-72
2023/10/30 02:52:04;;;;;;;5.10;1.67;;;12.00;99.90;;;11.34;84.23;99409.94;5036654;28;20214;-72
2023/10/30 02:54:32;;;;;;;5.10;1.43;;;12.00;99.90;;;11.34;84.22;99407.25;5036421;28;20253;-72
2023/10/30 02:57:00;;;;;;;5.93;1.57;;;12.00;99.90;;;11.34;83.95;99409.09;5036356;28;20235;-72
2023/10/30 02:59:28;;;;;;;14.40;1.90;;;12.00;99.90;;;11.37;83.56;99416.75;5036302;28;20288;-72
2023/10/30 03:01:58;;;;;;;7.30;2.00;;;12.00;99.90;;;11.34;84.59;99417.97;5036249;28;20286;-72
2023/10/30 03:04:26;;;;;;;7.77;3.00;;;12.00;99.90;;;11.32;83.89;99421.88;5036101;28;20226;-72
2023/10/30 03:06:58;;;;;;;7.23;2.00;;;12.00;99.90;;;11.32;84.14;99425.38;5035783;28;20230;-72
2023/10/30 03:09:26;;;;;;;5.60;2.67;;;12.00;99.90;;;11.31;84.73;99429.06;5036058;28;20195;-72
2023/10/30 03:11:55;;;;;;;6.30;2.50;;;12.00;99.90;;;11.29;84.11;99430.31;5035865;28;20203;-72
2023/10/30 03:14:24;;;;;;;7.50;2.27;;;11.90;99.90;;;11.28;84.93;99431.31;5036047;28;20286;-72
2023/10/30 03:16:53;;;;;;;5.20;2.17;;;11.90;99.90;;;11.26;85.16;99426.19;5035937;28;20679;-72
2023/10/30 03:19:23;;;;;;;3.97;1.97;;;11.90;99.90;;;11.26;84.94;99436.91;5035931;28;20214;-72
2023/10/30 03:21:51;;;;;;;5.40;1.87;;;11.90;99.90;;;11.24;85.45;99446.97;5036154;28;20302;-72
2023/10/30 03:24:20;;;;;;;8.20;2.20;;;11.90;99.90;;;11.24;84.60;99441.59;5035769;28;20317;-72
2023/10/30 03:26:49;;;;;;;6.03;1.70;;;11.90;99.90;;;11.23;85.17;99441.81;5035458;28;20780;-72
2023/10/30 03:29:17;;;;;;;5.03;1.40;;;11.90;99.90;;;11.24;84.85;99432.72;5035745;28;20301;-72
2023/10/30 03:31:45;;;;;;;6.77;1.90;;;11.90;99.90;;;11.22;84.83;99429.44;5035728;28;20619;-72
2023/10/30 03:34:16;;;;;;;7.60;1.93;;;11.90;99.90;;;11.19;85.40;99442.22;5035634;28;20207;-72
2023/10/30 03:36:45;;;;;;;5.20;2.00;;;11.80;99.90;;;11.20;84.92;99440.34;5035239;28;20705;-72
2023/10/30 03:39:14;;;;;;;5.97;1.80;;;11.80;99.90;;;11.18;84.86;99443.22;5035567;28;20294;-72
2023/10/30 03:41:44;;;;;;;6.23;1.60;;;11.80;99.90;;;11.19;84.88;99452.09;5035224;28;20747;-72
2023/10/30 03:44:12;;;;;;;5.37;1.80;;;11.80;99.90;;;11.17;84.71;99451.44;5035415;28;20320;-72
2023/10/30 03:46:40;;;;;;;5.43;1.60;;;11.80;99.90;;;11.17;85.24;99454.13;5035292;28;20720;-72
2023/10/30 03:49:08;;;;;;;7.03;1.90;;;11.80;99.90;;;11.17;85.44;99451.44;5034643;28;20245;-72
2023/10/30 03:51:37;;;;;;;5.50;1.80;;;11.80;99.90;;;11.19;84.40;99466.31;5035000;28;20684;-72
2023/10/30 03:54:08;;;;;;;6.87;1.90;;;11.90;99.90;;;11.19;84.78;99457.44;5035302;28;20206;-72
2023/10/30 03:56:36;;;;;;;7.93;1.70;;;11.90;99.90;;;11.17;85.61;99460.31;5035237;28;20254;-72
2023/10/30 03:59:04;;;;;;;7.10;2.20;;;11.80;99.90;;;11.16;84.87;99465.88;5035189;28;20238;-72
2023/10/30 04:01:33;;;;;;;3.97;1.40;;;11.80;99.90;;;11.16;85.86;99465.88;5034819;28;20672;-72
2023/10/30 04:04:01;;;;;;;6.17;1.87;;;11.80;99.90;;;11.15;84.96;99450.81;5034718;28;20226;-72
2023/10/30 04:06:30;;;;;;;5.63;1.93;;;11.80;99.90;;;11.16;85.70;99455.97;5035042;28;20237;-72
2023/10/30 04:08:58;;;;;;;8.07;3.20;;;11.80;99.90;;;11.15;86.03;99451.66;5034704;28;20709;-72
2023/10/30 04:11:27;;;;;;;10.23;3.20;;;11.80;99.90;;;11.12;85.96;99456.56;5035229;28;20207;-72
2023/10/30 04:13:55;;;;;;;7.43;3.13;;;11.70;99.90;;;11.13;86.55;99447.50;5034511;28;20306;-72
2023/10/30 04:16:23;;;;;;;11.03;3.00;;;11.80;99.90;;;11.12;85.87;99448.53;5034498;28;20791;-72
2023/10/30 04:18:52;;;;;;;8.13;2.30;;;11.70;99.90;;;11.11;86.57;99441.50;5034514;28;20214;-72
2023/10/30 04:21:20;;;;;;;6.27;2.37;;;11.70;99.90;;;11.09;86.48;99447.09;5034756;28;20210;-72
2023/10/30 04:23:48;;;;;;;5.57;2.27;;;11.70;99.90;;;11.07;86.55;99448.28;5034646;28;20233;-72
2023/10/30 04:26:17;;;;;;;6.13;2.30;;;11.70;99.90;;;11.06;86.63;99446.66;5034592;28;20229;-72
2023/10/30 04:28:47;;;;;;;5.10;2.20;;;11.60;99.90;;;11.02;87.28;99450.72;5034342;28;20772;-72
2023/10/30 04:31:15;;;;;;;5.93;2.00;;;11.60;99.90;;;10.99;87.67;99453.81;5034582;28;20246;-72
2023/10/30 04:33:43;;;;;;;9.27;2.50;;;11.60;99.90;;;10.96;87.63;99452.31;5034515;28;20203;-72
2023/10/30 04:36:12;;;;;;;7.43;2.37;;;11.50;99.90;;;10.94;87.68;99461.56;5034416;28;20231;-72
2023/10/30 04:38:41;;;;;;;7.40;2.37;;;11.60;99.90;;;10.91;87.99;99456.59;5034408;28;20236;-72
2023/10/30 04:41:09;;;;;;;7.30;2.10;;;11.50;99.90;;;10.91;87.81;99460.13;5034382;28;20294;-72
2023/10/30 04:43:37;;;;;;;9.83;2.20;;;11.60;99.90;;;10.92;88.47;99455.59;5033937;28;20249;-72
2023/10/30 04:46:07;;;;;;;5.97;2.00;;;11.60;99.90;;;10.92;88.39;99453.75;5034220;28;20231;-72
2023/10/30 04:48:35;;;;;;;7.80;2.10;;;11.60;99.90;;;10.92;87.91;99453.75;5034248;28;20260;-72
2023/10/30 04:51:05;;;;;;;7.07;2.00;;;11.60;99.90;;;10.93;87.93;99454.56;5034205;28;20207;-72
2023/10/30 04:53:33;;;;;;;5.53;2.10;;;11.50;99.90;;;10.94;88.55;99453.53;5034170;28;20305;-72
2023/10/30 04:56:03;;;;;;;7.53;2.00;;;11.60;99.90;;;10.93;87.60;99447.34;5034034;28;20273;-72
2023/10/30 04:58:32;;;;;;;5.27;1.80;;;11.60;99.90;;;10.92;88.03;99452.91;5034065;28;20198;-72
2023/10/30 05:01:00;;;;;;;7.20;2.40;;;11.60;99.90;;;10.94;88.59;99458.91;5034037;28;20261;-72
2023/10/30 05:03:29;;;;;;;9.43;2.27;;;11.60;99.90;;;10.90;88.74;99462.97;5033962;28;20261;-72
2023/10/30 05:06:02;;;;;;;4.77;2.03;;;11.50;99.90;;;10.91;88.28;99464.63;5033823;28;20229;-72
2023/10/30 05:08:30;;;;;;;8.90;2.80;;;11.50;99.90;;;10.91;89.03;99467.31;5033928;28;20188;-72
2023/10/30 05:11:01;;;;;;;7.20;2.23;;;11.50;99.90;;;10.90;88.42;99462.97;5034108;28;20207;-72
2023/10/30 05:13:29;;;;;;;5.10;1.90;;;11.50;99.90;;;10.90;88.43;99460.28;5033705;28;20223;-72
2023/10/30 05:15:57;;;;;;;8.43;1.90;;;11.50;99.90;;;10.89;89.06;99464.03;5033715;28;20313;-72
2023/10/30 05:18:26;;;;;;;8.57;2.77;;;11.50;99.90;;;10.88;88.56;99462.34;5033791;28;20277;-72
2023/10/30 05:20:55;;;;;;;4.97;1.70;;;11.50;99.90;;;10.89;88.40;99458.66;5033747;28;20241;-72
2023/10/30 05:23:24;;;;;;;8.53;2.23;;;11.50;99.90;;;10.87;89.24;99460.69;5033695;28;20241;-72
2023/10/30 05:25:53;;;;;;;8.60;2.17;;;11.50;99.90;;;10.82;88.92;99453.22;5033200;28;20610;-72
2023/10/30 05:28:21;;;;;;;9.07;2.10;;;11.50;99.90;;;10.84;89.58;99453.03;5033645;28;20298;-72
2023/10/30 05:30:53;;;;;;;7.53;1.90;;;11.50;99.90;;;10.85;89.02;99449.34;5033689;28;20197;-72
2023/10/30 05:33:22;;;;;;;6.03;2.27;;;11.50;99.90;;;10.84;88.80;99447.69;5033545;28;20207;-72
2023/10/30 05:35:52;;;;;;;7.67;2.20;;;11.50;99.90;;;10.83;89.32;99452.22;5033496;28;20334;-72
2023/10/30 05:38:22;;;;;;;6.73;1.77;;;11.50;99.90;;;10.83;89.30;99452.22;5033497;28;20203;-72
2023/10/30 05:40:50;;;;;;;5.97;1.80;;;11.50;99.90;;;10.82;89.22;99450.53;5033514;28;20194;-72
2023/10/30 05:43:18;;;;;;;5.73;1.73;;;11.50;99.90;;;10.80;89.39;99441.06;5034219;28;20277;-72
2023/10/30 05:45:47;;;;;;;9.00;2.23;;;11.50;99.90;;;10.80;90.13;99443.75;5033309;28;20343;-72
2023/10/30 05:48:16;;;;;;;6.27;2.17;;;11.50;99.90;;;10.80;90.34;99449.91;5033441;28;20359;-72
2023/10/30 05:50:44;;;;;;;8.23;2.17;;;11.50;99.90;;;10.81;89.38;99450.75;5033382;28;20236;-72
2023/10/30 05:53:13;;;;;;;5.60;2.10;;;11.40;99.90;;;10.78;90.22;99451.16;5033398;28;20253;-72
2023/10/30 05:55:43;;;;;;;8.17;2.40;;;11.50;99.90;;;10.80;89.68;99446.41;5033283;28;20310;-72
2023/10/30 05:58:12;;;;;;;6.97;2.10;;;11.50;99.90;;;10.79;89.41;99444.78;5033058;28;20273;-72
2023/10/30 06:00:40;;;;;;;7.20;1.97;;;11.40;99.90;;;10.80;89.77;99447.25;5033572;28;20301;-72
2023/10/30 06:03:09;;;;;;;6.47;2.07;;;11.50;99.90;;;10.79;90.18;99450.13;5032935;28;20638;-72
2023/10/30 06:05:37;;;;;;;5.17;2.10;;;11.50;99.90;;;10.81;89.43;99448.91;5033080;28;20314;-72
2023/10/30 06:08:05;;;;;;;10.23;2.00;;;11.50;99.90;;;10.79;89.39;99452.81;5033262;28;20297;-72
2023/10/30 06:10:34;;;;;;;6.57;2.10;;;11.50;99.90;;;10.81;89.31;99459.63;5033316;28;20234;-72
2023/10/30 06:13:03;;;;;;;8.23;2.07;;;11.50;99.90;;;10.81;89.97;99459.63;5036681;28;20260;-72
2023/10/30 06:15:31;;;;;;;7.97;2.00;;;11.50;99.90;;;10.81;89.94;99469.50;5037086;28;20301;-72
2023/10/30 06:17:59;;;;;;;7.33;1.80;;;11.50;99.90;;;10.80;90.21;99479.38;5037106;28;20203;-72
2023/10/30 06:20:28;;;;;;;6.53;2.30;;;11.50;99.90;;;10.80;89.34;99479.38;5037030;28;20246;-72
2023/10/30 06:22:57;;;;;;;11.13;2.33;;;11.50;99.90;;;10.79;89.39;99485.75;5037000;28;20289;-72
2023/10/30 06:25:25;;;;;;;6.17;2.33;;;11.50;99.90;;;10.79;89.77;99476.91;5036839;28;20646;-72
2023/10/30 06:27:53;;;;;;;9.60;1.90;;;11.50;99.90;;;10.80;89.97;99486.56;5036824;28;20209;-72
2023/10/30 06:30:23;;;;;;;7.50;1.60;;;11.50;99.90;;;10.80;89.95;99489.25;5036860;28;20207;-72
2023/10/30 06:32:51;;;;;;;9.27;2.17;;;11.50;99.90;;;10.81;89.40;99490.91;5036714;28;20210;-72
2023/10/30 06:35:19;;;;;;;7.47;2.27;;;11.50;99.90;;;10.82;89.59;99495.25;5036325;28;20709;-72
2023/10/30 06:37:47;;;;;;;7.47;2.07;;;11.50;99.90;;;10.81;89.62;99504.31;5036892;28;20293;-73
2023/10/30 06:40:16;;;;;;;12.20;2.87;;;11.50;99.90;;;10.79;89.65;99499.13;5036630;28;20238;-73
2023/10/30 06:42:44;;;;;;;5.80;2.00;;;11.50;99.90;;;10.80;89.78;99494.59;5036000;28;20293;-73
2023/10/30 06:45:12;;;;;;;6.90;2.10;;;11.50;99.90;;;10.79;90.23;99503.69;5036151;28;20231;-73
2023/10/30 06:47:43;;;;;;;5.53;2.03;;;11.50;99.90;;;10.79;90.02;99506.34;5036580;28;20298;-73
2023/10/30 06:50:11;;;;;;;11.77;2.20;;;11.40;99.90;;;10.79;89.92;99504.47;5036241;28;20638;-73
2023/10/30 06:52:39;;;;;;;8.60;2.47;;;11.50;99.90;;;10.80;90.20;99508.00;5036436;28;20289;-73
2023/10/30 06:55:09;;;;;;;5.53;1.90;;;11.50;99.90;;;10.81;89.48;99509.66;5036352;28;20214;-74
2023/10/30 06:57:37;;;;;;;7.27;2.10;;;11.50;99.90;;;10.82;89.89;99503.28;5036368;28;20298;-74
2023/10/30 07:00:07;;;;;;;4.80;1.93;;;11.50;99.90;;;10.82;89.67;99511.31;5036338;28;20206;-74
2023/10/30 07:02:35;;;;;;;9.13;2.63;;;11.50;99.90;;;10.84;89.01;99511.94;5035965;28;20681;-74
2023/10/30 07:05:06;;;;;;;8.80;2.67;;;11.50;99.90;;;10.84;89.48;99509.28;5036106;28;20226;-74
2023/10/30 07:07:34;;;;;;;8.50;2.53;;;11.50;99.90;;;10.85;89.83;99505.59;5035621;28;20194;-74
2023/10/30 07:10:02;;;;;;;6.90;2.33;;;11.50;99.90;;;10.87;89.58;99504.34;5036197;28;20281;-74
2023/10/30 07:12:31;;;;;;;7.93;2.47;;;11.50;99.90;;;10.86;89.18;99515.25;5036049;28;20305;-74
2023/10/30 07:14:59;;;;;;;7.80;2.50;;;11.50;99.90;;;10.88;89.82;99513.22;5035921;28;20210;-74
2023/10/30 07:17:27;;;;;;;9.90;2.77;;;11.60;99.90;;;10.87;89.45;99514.25;5035941;28;20230;-73
2023/10/30 07:19:55;;;;;;;6.70;2.17;;;11.60;99.90;;;10.87;89.66;99531.13;5035948;28;20211;-73
2023/10/30 07:22:25;;;;;;;9.83;2.40;;;11.60;99.90;;;10.89;89.62;99529.09;5034862;28;20228;-73
2023/10/30 07:24:53;;;;;;;8.57;2.77;;;11.60;99.90;;;10.91;89.98;99534.25;5035234;28;20289;-73
2023/10/30 07:27:21;;;;;;;11.50;2.50;;;11.60;99.90;;;10.92;89.98;99535.94;5035830;28;20210;-73
2023/10/30 07:29:49;;;;;;;6.00;2.57;;;11.60;99.90;;;10.95;89.89;99535.53;5035814;28;20210;-74
2023/10/30 07:32:17;;;;;;;8.87;1.97;;;11.60;99.90;;;11.00;89.61;99522.38;5035654;28;20401;-73
2023/10/30 07:34:46;;;;;;;8.87;2.10;;;11.70;99.90;;;10.99;89.36;99536.81;5035661;28;20290;-73
2023/10/30 07:37:14;;;;;;;4.77;1.73;;;11.70;99.90;;;11.03;88.65;99540.75;5035596;28;20218;-73
2023/10/30 07:39:44;;;;;;;9.27;1.80;;;11.70;99.90;;;11.02;88.84;99534.59;5035325;28;20239;-73
2023/10/30 07:42:12;;;;;;;5.83;1.83;;;11.70;99.90;;;11.04;89.44;99545.09;5035771;28;20213;-73
2023/10/30 07:44:40;;;;;;;7.27;2.10;;;11.70;99.90;;;11.04;88.93;99551.28;5035538;28;20213;-73
2023/10/30 07:47:08;;;;;;;7.77;2.10;;;11.70;99.90;;;11.03;89.47;99546.94;5035191;28;20234;-73
2023/10/30 07:49:37;;;;;;;8.40;2.20;;;11.70;99.90;;;11.07;88.94;99547.38;5035391;28;20234;-73
2023/10/30 07:52:06;;;;;;;6.67;2.00;;;11.70;99.90;;;11.08;88.90;99538.34;5035302;28;20691;-73
2023/10/30 07:54:34;;;;;;;8.67;2.40;;;11.80;99.90;;;11.07;88.95;99553.56;5035313;28;20238;-73
2023/10/30 07:57:05;;;;;;;9.83;2.40;;;11.70;99.90;;;11.08;90.04;99549.88;5035181;28;20219;-73
2023/10/30 07:59:35;;;;;;;8.23;2.47;;;11.80;99.90;;;11.09;89.99;99548.88;5034976;28;20650;-74
2023/10/30 08:02:04;;;;;;;7.80;2.13;;;11.80;99.90;;;11.12;89.80;99558.38;5034933;28;20241;-74
2023/10/30 08:04:32;;;;;;;7.77;2.13;;;11.80;99.90;;;11.12;90.13;99553.84;5035053;28;20209;-74
2023/10/30 08:07:01;;;;;;;7.07;2.23;;;11.80;99.90;;;11.13;90.19;99560.00;5034714;28;20231;-74
2023/10/30 08:09:29;;;;;;;7.37;2.27;;;11.80;99.90;;;11.13;90.80;99560.81;5035082;28;20285;-74
2023/10/30 08:11:57;;;;;;;9.50;2.57;;;11.80;99.90;;;11.15;91.09;99563.31;5034884;28;20245;-74
2023/10/30 08:14:27;;;;;;;7.63;2.40;;;11.80;99.90;;;11.16;91.34;99567.69;5034949;28;20270;-74
2023/10/30 08:16:55;;;;;;;6.83;2.00;;;11.80;99.90;;;11.16;90.83;99570.34;5034954;28;20277;-74
2023/10/30 08:19:23;;;;;;;13.10;2.47;;;11.90;99.90;;;11.17;91.42;99561.28;5034453;28;20203;-74
2023/10/30 08:21:51;;;;;;;8.77;2.23;;;11.80;99.90;;;11.18;91.51;99552.22;5034788;28;20207;-74
2023/10/30 08:24:20;;;;;;;7.43;2.83;;;11.80;99.90;;;11.18;90.71;99552.22;5034957;28;20215;-74
2023/10/30 08:26:48;;;;;;;7.00;3.37;;;11.90;99.90;;;11.18;91.18;99561.09;5034569;28;20227;-74
2023/10/30 08:29:16;;;;;;;10.57;3.50;;;11.90;99.90;;;11.19;91.45;99557.41;5034613;28;20206;-75
2023/10/30 08:31:46;;;;;;;7.70;2.43;;;11.90;99.90;;;11.19;90.87;99546.69;5034305;28;20211;-73
2023/10/30 08:34:15;;;;;;;7.87;2.70;;;11.90;99.90;;;11.22;90.54;99558.88;5034444;28;20207;-73
2023/10/30 08:36:44;;;;;;;8.70;3.10;;;11.90;99.90;;;11.21;90.22;99567.91;5034337;28;20601;-71
2023/10/30 08:39:13;;;;;;;8.30;2.50;;;11.90;99.90;;;11.23;90.78;99570.41;5034437;28;20210;-70
2023/10/30 08:41:41;;;;;;;7.20;3.23;;;11.90;99.90;;;11.23;90.73;99576.59;5034037;28;20214;-70
2023/10/30 08:44:10;;;;;;;11.07;3.67;;;11.90;99.90;;;11.24;89.98;99577.41;5034405;28;20229;-70
2023/10/30 08:46:38;;;;;;;10.87;3.10;;;11.90;99.90;;;11.23;91.00;99575.78;5033861;28;20655;-70
2023/10/30 08:49:08;;;;;;;9.77;3.40;;;11.90;99.90;;;11.23;90.30;99579.28;5034475;28;20203;-70
2023/10/30 08:51:41;;;;;;;12.30;5.07;;;11.90;99.90;;;11.24;90.62;99582.75;5033944;28;20729;-70
2023/10/30 08:54:24;;;;;;;9.77;3.27;;;11.90;99.90;;;11.29;90.40;99577.66;5033918;28;20645;-69
2023/10/30 08:56:52;;;;;;;7.80;2.77;;;12.00;99.90;;;11.35;90.87;99580.41;5034064;28;20222;-70
2023/10/30 08:59:31;;;;;;;7.10;2.33;;;12.00;99.90;;;11.43;90.54;99582.13;5033812;28;20190;-70
2023/10/30 09:01:59;;;;;;;9.00;2.40;;;12.10;99.90;;;11.53;89.24;99582.63;5033721;28;20633;-70
2023/10/30 09:04:30;;;;;;;8.30;2.60;;;12.20;99.90;;;11.57;89.43;99582.03;5033689;28;20641;-70
2023/10/30 09:06:58;;;;;;;8.27;2.70;;;12.30;99.90;;;11.65;89.41;99584.56;5033704;28;20273;-70
2023/10/30 09:09:27;;;;;;;8.80;2.97;;;12.30;99.90;;;11.73;88.96;99582.78;5033725;28;20674;-70
2023/10/30 09:11:55;;;;;;;9.23;2.80;;;12.40;99.90;;;11.76;88.47;99568.97;5033707;28;20207;-70
2023/10/30 09:14:24;;;;;;;7.00;2.83;;;12.50;99.90;;;11.87;88.29;99577.31;5033822;28;20187;-70
2023/10/30 09:16:54;;;;;;;7.97;2.40;;;12.60;99.90;;;11.92;87.92;99574.88;5033755;28;20229;-70
2023/10/30 09:19:22;;;;;;;8.20;2.30;;;12.60;99.90;;;12.02;87.42;99571.84;5033884;28;20217;-70
2023/10/30 09:21:53;;;;;;;10.87;2.83;;;12.70;99.90;;;12.09;86.82;99583.41;5033387;28;20749;-70
2023/10/30 09:24:24;;;;;;;10.80;2.83;;;12.80;99.90;;;12.17;87.11;99588.63;5033766;28;20608;-70
2023/10/30 09:26:52;;;;;;;8.20;2.60;;;12.80;99.90;;;12.28;85.58;99585.41;5033505;28;20258;-70
2023/10/30 09:29:21;;;;;;;4.53;2.00;;;12.90;99.90;;;12.33;85.95;99574.88;5033332;28;20669;-70
2023/10/30 09:31:50;;;;;;;8.70;2.60;;;13.00;99.90;;;12.43;85.28;99579.91;5033634;28;20293;-70
2023/10/30 09:34:18;;;;;;;6.87;1.97;;;13.10;99.90;;;12.51;85.16;99585.91;5033616;28;20213;-70
2023/10/30 09:36:46;;;;;;;10.73;2.40;;;13.20;99.90;;;12.59;85.08;99591.09;5033729;28;20222;-70
2023/10/30 09:39:16;;;;;;;7.23;2.37;;;13.30;99.90;;;12.72;83.36;99584.94;5033518;28;20630;-70
2023/10/30 09:41:47;;;;;;;4.67;2.10;;;13.40;99.90;;;12.75;84.71;99599.81;5033499;28;20298;-70
2023/10/30 09:44:17;;;;;;;5.43;2.33;;;13.50;99.90;;;12.86;83.29;99600.06;5033508;28;20298;-70
2023/10/30 09:46:47;;;;;;;6.87;2.43;;;13.50;99.90;;;12.90;83.58;99593.25;5032666;28;20234;-70
2023/10/30 09:49:17;;;;;;;8.87;2.30;;;13.60;99.90;;;12.97;82.88;99604.03;5033695;28;20190;-70
2023/10/30 09:51:48;;;;;;;6.97;2.10;;;13.60;99.90;;;13.05;83.07;99598.44;5033525;28;20206;-70
2023/10/30 09:54:19;;;;;;;6.27;2.10;;;13.70;99.90;;;13.10;80.96;99590.66;5033410;28;20199;-70
2023/10/30 09:56:49;;;;;;;7.13;2.33;;;13.80;99.90;;;13.16;81.74;99593.34;5033282;28;20226;-70
2023/10/30 09:59:17;;;;;;;9.30;2.57;;;13.80;99.90;;;13.20;80.56;99597.28;5033357;28;20260;-70
2023/10/30 10:01:47;;;;;;;7.87;2.10;;;13.80;99.90;;;13.24;80.63;99589.63;5032951;28;20210;-70
2023/10/30 10:04:16;;;;;;;7.77;2.77;;;13.90;99.90;;;13.25;81.20;99593.97;5033317;28;20219;-70
2023/10/30 10:06:46;;;;;;;6.17;2.30;;;13.90;99.90;;;13.26;81.63;99592.09;5032807;28;20284;-70
2023/10/30 10:09:15;;;;;;;10.67;2.20;;;13.90;99.90;;;13.27;81.91;99591.91;5033210;28;20206;-70
2023/10/30 10:11:45;;;;;;;7.83;2.37;;;13.90;99.90;;;13.27;80.79;99594.59;5032754;28;20618;-70
2023/10/30 10:14:15;;;;;;;5.80;2.07;;;14.00;99.90;;;13.28;80.94;99596.25;5032879;28;20192;-70
2023/10/30 10:16:45;;;;;;;7.13;2.20;;;14.00;99.90;;;13.36;80.30;99581.75;5032310;28;20218;-70
2023/10/30 10:19:21;;;;;;;6.53;2.53;;;14.00;99.90;;;13.44;80.44;99593.16;5032324;28;20207;-70
2023/10/30 10:21:51;;;;;;;6.80;1.87;;;14.10;99.90;;;13.49;79.03;99593.34;5032214;28;20256;-70
2023/10/30 10:24:29;;;;;;;3.77;1.93;;;14.10;99.90;;;13.57;79.22;99590.47;5032617;28;20628;-70